createdAt,value
2022-11-28T04:30:38.365Z,14.10
2022-11-28T04:45:47.569Z,14.00
2022-11-28T05:00:55.431Z,14.00
2022-11-28T05:16:03.353Z,14.00
2022-11-28T05:31:08.006Z,14.10
2022-11-28T05:46:12.517Z,13.80
2022-11-28T06:01:19.249Z,13.80
2022-11-28T06:16:25.481Z,13.80
2022-11-28T06:31:31.063Z,14.00
2022-11-28T06:46:35.592Z,13.60
2022-11-28T07:01:40.149Z,13.50
2022-11-28T07:16:44.696Z,13.30
2022-11-28T07:31:49.051Z,13.60
2022-11-28T07:46:53.852Z,13.30
2022-11-28T08:01:58.362Z,13.70
2022-11-28T08:17:02.799Z,13.40
2022-11-28T08:32:07.827Z,13.70
2022-11-28T08:47:12.239Z,13.70
2022-11-28T09:02:16.641Z,13.90
2022-11-28T09:17:21.009Z,14.00
2022-11-28T09:32:25.449Z,13.90
2022-11-28T09:47:31.978Z,13.90
2022-11-28T10:02:43.874Z,13.90
2022-11-28T10:17:57.443Z,14.00
2022-11-28T10:33:09.659Z,14.20
2022-11-28T10:48:40.012Z,13.90
2022-11-28T11:03:44.982Z,14.30
2022-11-28T11:18:55.926Z,14.30
2022-11-28T11:34:06.473Z,14.10
2022-11-28T11:49:29.700Z,14.50
2022-11-28T12:04:52.452Z,14.40
2022-11-28T12:20:10.724Z,14.70
2022-11-28T12:35:26.797Z,14.30
2022-11-28T12:50:36.806Z,14.60
2022-11-28T13:05:56.269Z,14.90
2022-11-28T13:21:15.747Z,14.80
2022-11-28T14:07:30.555Z,14.70
2022-11-28T14:22:47.882Z,14.60
2022-11-28T14:37:55.365Z,15.10
2022-11-28T15:09:01.074Z,14.70
2022-11-28T15:24:23.066Z,14.80
2022-11-28T15:39:31.324Z,14.60
2022-11-28T15:54:39.030Z,14.80
2022-11-28T16:10:01.781Z,14.40
2022-11-28T16:25:23.325Z,14.40
2022-11-28T16:40:27.738Z,14.40
2022-11-28T16:55:44.243Z,14.30
2022-11-28T17:10:48.859Z,14.60
2022-11-28T17:25:53.218Z,14.10
2022-11-28T17:40:57.746Z,14.30
2022-11-28T17:56:02.217Z,14.50
2022-11-28T18:11:08.803Z,14.20
2022-11-28T18:26:15.100Z,14.20
2022-11-28T18:41:19.584Z,13.90
2022-11-28T18:56:24.816Z,13.40
2022-11-28T19:11:30.126Z,13.60
2022-11-28T19:26:34.831Z,14.10
2022-11-28T19:41:39.962Z,13.60
2022-11-28T19:56:44.433Z,14.20
2022-11-28T20:11:49.420Z,13.70
2022-11-28T20:26:54.063Z,13.10
2022-11-28T20:41:59.666Z,13.50
2022-11-28T21:12:28.396Z,13.70
